Chatsworth, New Jersey
Current Conditions -  °F | °C
As of 7:23 PM on Saturday 20 Dec 2014 (Local Time) from KWRI Reporting Station
Scattered Clouds Scattered Clouds  
Wind Chill: 30°   Ceiling: Unl
Heat Index: 30°   Visibility: 10mi
Dew Point: 21°   Wind: 2mph
Humidity: 69%   Direction: 40°NE
Pressure: 30.27"   Gusts: NA
Location:  39.82°N, 74.53°W
Report Text: KWRI 210023Z AUTO 04002KT 10SM SCT029 M01/M06 A3027 RMK AO2 $
Loading
Personal Weather Stations






























Interactive Weather Map New forecast layout! Learn more

10-Day Weather Forecast

Advertisements
Track Severe Weather on mobile